createdAt,value
2019-03-10T00:04:49.095Z,40
2019-03-10T00:14:48.309Z,40
2019-03-10T00:24:47.522Z,40
2019-03-10T00:34:46.732Z,39.9
2019-03-10T00:44:45.945Z,39.9
2019-03-10T00:54:45.950Z,39.9
2019-03-10T01:04:45.162Z,39.9
2019-03-10T01:14:44.375Z,40
2019-03-10T01:24:43.590Z,39.9
2019-03-10T01:34:42.802Z,39.9
2019-03-10T01:44:42.024Z,39.9
2019-03-10T01:54:41.232Z,39.9
2019-03-10T02:04:40.436Z,39.9
2019-03-10T02:14:39.649Z,39.9
2019-03-10T02:24:38.861Z,39.9
2019-03-10T02:34:38.078Z,39.9
2019-03-10T02:44:37.285Z,39.9
2019-03-10T02:54:36.496Z,39.9
2019-03-10T03:04:35.709Z,39.9
2019-03-10T03:14:34.928Z,39.9
2019-03-10T03:24:34.131Z,39.8
2019-03-10T03:34:33.346Z,39.9
2019-03-10T03:44:32.559Z,39.8
2019-03-10T03:54:31.767Z,39.8
2019-03-10T04:04:30.977Z,39.8
2019-03-10T04:14:30.188Z,39.8
2019-03-10T04:24:29.401Z,39.8
2019-03-10T04:34:28.610Z,39.8
2019-03-10T04:44:27.818Z,39.8
2019-03-10T04:54:27.034Z,39.8
2019-03-10T05:04:26.238Z,39.4
2019-03-10T05:14:25.452Z,39.4
2019-03-10T05:24:24.659Z,39.3
2019-03-10T05:34:23.920Z,39.3
2019-03-10T05:44:23.078Z,35.8
2019-03-10T05:54:22.287Z,28.2
2019-03-10T06:04:21.496Z,28.4
2019-03-10T06:14:20.706Z,28.3
2019-03-10T06:24:19.920Z,27.5
2019-03-10T06:34:19.128Z,27.4
2019-03-10T06:44:18.349Z,28
2019-03-10T06:54:17.554Z,28.7
2019-03-10T07:04:16.766Z,29.6
2019-03-10T07:14:15.978Z,30.8
2019-03-10T07:24:15.190Z,31.4
2019-03-10T07:34:14.404Z,32.3
2019-03-10T07:44:13.614Z,33.3
2019-03-10T07:54:12.886Z,34.4
2019-03-10T08:04:12.043Z,34.6
2019-03-10T08:14:11.252Z,33.8
2019-03-10T08:24:10.476Z,31.2
2019-03-10T08:34:09.681Z,30
2019-03-10T08:44:08.896Z,29.9
2019-03-10T08:54:08.108Z,30.5
2019-03-10T09:04:07.322Z,31.3
2019-03-10T09:14:06.536Z,31.5
2019-03-10T09:24:05.755Z,31.7
2019-03-10T09:34:04.963Z,31.9
2019-03-10T09:44:04.179Z,32.9
2019-03-10T09:54:03.390Z,33.3
2019-03-10T10:04:02.608Z,33.9
2019-03-10T10:14:01.818Z,32.8
2019-03-10T10:24:01.031Z,31.9
2019-03-10T10:34:00.248Z,32.1
2019-03-10T10:43:59.460Z,32.3
2019-03-10T10:53:58.673Z,33.1
2019-03-10T11:03:57.886Z,33.6
2019-03-10T11:13:57.104Z,34.4
2019-03-10T11:23:56.315Z,34.9
2019-03-10T11:33:55.528Z,35.5
2019-03-10T11:43:54.743Z,36.1
2019-03-10T11:53:53.957Z,36.7
2019-03-10T12:03:53.171Z,37.1
2019-03-10T12:13:52.388Z,37.5
2019-03-10T12:23:51.599Z,38
2019-03-10T12:33:50.811Z,38.7
2019-03-10T12:36:42.754Z,38.9
2019-03-10T12:46:41.903Z,39.6
2019-03-10T12:56:41.115Z,40.3
2019-03-10T13:06:40.327Z,41
2019-03-10T13:16:39.537Z,41.7
2019-03-10T13:26:38.748Z,42.4
2019-03-10T13:36:37.960Z,43.1
2019-03-10T13:46:37.244Z,43.8
2019-03-10T13:56:36.535Z,44.4
2019-03-10T14:06:35.820Z,44.9
2019-03-10T14:16:35.111Z,45.3
2019-03-10T14:26:34.398Z,45.4
2019-03-10T14:36:33.653Z,45.6
2019-03-10T14:46:32.867Z,45.7
2019-03-10T14:56:32.133Z,45.7
2019-03-10T15:06:31.295Z,45.4
2019-03-10T15:16:30.506Z,45.1
2019-03-10T15:26:29.729Z,44.8
2019-03-10T15:36:28.934Z,44.3
2019-03-10T15:46:28.149Z,42.7
2019-03-10T15:56:27.365Z,42.1
2019-03-10T16:06:26.581Z,41.1
2019-03-10T16:16:25.791Z,39.4
2019-03-10T16:26:25.011Z,37.4
2019-03-10T16:36:24.223Z,34.8
2019-03-10T16:46:24.383Z,31.6
2019-03-10T16:56:23.614Z,28.1
2019-03-10T17:06:22.811Z,26.9
2019-03-10T17:16:22.025Z,26.2
2019-03-10T17:26:21.244Z,26.4
2019-03-10T17:36:20.453Z,26.4
2019-03-10T17:46:19.671Z,25.5
2019-03-10T17:56:18.884Z,24.9
2019-03-10T18:06:18.103Z,24.6
2019-03-10T18:16:17.315Z,24.4
2019-03-10T18:26:16.536Z,24.7
2019-03-10T18:36:15.758Z,24.2
2019-03-10T18:46:14.981Z,23.6
2019-03-10T18:56:14.234Z,23.3
2019-03-10T19:06:13.433Z,23.4
2019-03-10T19:16:12.654Z,22.9
2019-03-10T19:26:11.877Z,22.8
2019-03-10T19:36:11.099Z,22.4
2019-03-10T19:46:10.320Z,19.9
2019-03-10T19:56:09.553Z,17.7
2019-03-10T20:06:08.756Z,17.7
2019-03-10T20:16:07.974Z,17.8
2019-03-10T20:26:07.191Z,17.1
2019-03-10T20:36:06.430Z,14.9
2019-03-10T20:46:05.683Z,14.2
2019-03-10T20:56:04.844Z,14.3
2019-03-10T21:07:39.249Z,14.3
2019-03-10T21:17:38.467Z,14.3
2019-03-10T21:27:38.515Z,14.3
2019-03-10T21:37:36.901Z,14.4
2019-03-10T21:47:36.118Z,14.3
2019-03-10T21:57:35.334Z,14.4
2019-03-10T22:07:34.558Z,14.4
2019-03-10T22:17:33.859Z,14.4
2019-03-10T22:27:33.149Z,14.4
2019-03-10T22:37:32.451Z,14.4
2019-03-10T22:47:31.736Z,14.4
2019-03-10T22:57:31.024Z,14.5
2019-03-10T23:07:30.277Z,14.5
2019-03-10T23:17:29.494Z,14.5
2019-03-10T23:27:28.713Z,14.6
2019-03-10T23:37:27.923Z,14.6
2019-03-10T23:47:27.140Z,14.6
2019-03-10T23:57:26.358Z,14.6
